Time;durP1;ratioP1;P1;durP2;ratioP2;P2;SDS_P1;SDS_P2;PMS_P1;PMS_P2;Temp;Humidity;BMP_temperature;BMP_pressure;BME280_temperature;BME280_humidity;BME280_pressure;Samples;Min_cycle;Max_cycle;Signal;HPM_P1;HPM_P2
2022/07/19 00:00:47;;;;;;;4.00;2.90;;;;;;;;;;5002251;28;20087;-73
2022/07/19 00:03:20;;;;;;;4.82;2.85;;;;;;;;;;5002005;28;20064;-72
2022/07/19 00:05:46;;;;;;;5.13;2.70;;;;;;;;;;5013599;28;20053;-72
2022/07/19 00:08:11;;;;;;;3.75;2.60;;;;;;;;;;5001100;28;20068;-72
2022/07/19 00:10:37;;;;;;;5.30;2.80;;;;;;;;;;5004751;28;20022;-73
2022/07/19 00:13:03;;;;;;;4.53;3.00;;;;;;;;;;5001289;28;20033;-73
2022/07/19 00:15:28;;;;;;;4.50;3.00;;;;;;;;;;4997993;28;20029;-72
2022/07/19 00:17:54;;;;;;;5.20;2.80;;;;;;;;;;4997978;28;20068;-73
2022/07/19 00:20:21;;;;;;;6.75;3.15;;;;;;;;;;4995420;28;20036;-72
2022/07/19 00:22:47;;;;;;;4.10;2.85;;;;;;;;;;4995263;28;20096;-73
2022/07/19 00:25:13;;;;;;;169.27;9.90;;;;;;;;;;4994020;28;20038;-72
2022/07/19 00:27:40;;;;;;;4.90;2.80;;;;;;;;;;4997533;28;20037;-72
2022/07/19 00:30:07;;;;;;;5.45;2.85;;;;;;;;;;5000013;28;20402;-72
2022/07/19 00:32:32;;;;;;;4.10;2.88;;;;;;;;;;4998997;28;20041;-72
2022/07/19 00:34:57;;;;;;;4.40;3.33;;;;;;;;;;4998294;28;20045;-72
2022/07/19 00:37:23;;;;;;;4.88;3.60;;;;;;;;;;5003108;28;20060;-73
2022/07/19 00:39:48;;;;;;;5.50;3.40;;;;;;;;;;5001148;28;20030;-71
2022/07/19 00:42:15;;;;;;;5.20;3.17;;;;;;;;;;5000895;28;20107;-72
2022/07/19 00:44:40;;;;;;;5.28;3.28;;;;;;;;;;5000632;28;20505;-73
2022/07/19 00:47:07;;;;;;;5.25;3.22;;;;;;;;;;5001096;28;20034;-71
2022/07/19 00:49:32;;;;;;;6.72;3.70;;;;;;;;;;5000556;28;20050;-72
2022/07/19 00:51:59;;;;;;;5.38;3.17;;;;;;;;;;5007302;28;20128;-72
2022/07/19 00:54:25;;;;;;;5.53;2.90;;;;;;;;;;5004889;28;21517;-72
2022/07/19 00:56:51;;;;;;;6.70;3.17;;;;;;;;;;5005314;28;20104;-73
2022/07/19 00:59:17;;;;;;;5.45;3.42;;;;;;;;;;5007051;28;20156;-74
2022/07/19 01:01:44;;;;;;;5.63;3.20;;;;;;;;;;4999858;28;20034;-71
2022/07/19 01:04:10;;;;;;;5.68;3.60;;;;;;;;;;5012972;28;20401;-73
2022/07/19 01:06:36;;;;;;;5.78;3.60;;;;;;;;;;4999776;28;20535;-72
2022/07/19 01:09:02;;;;;;;5.53;3.60;;;;;;;;;;4993868;28;20034;-72
2022/07/19 01:11:27;;;;;;;5.18;3.78;;;;;;;;;;4995454;28;20060;-72
2022/07/19 01:13:53;;;;;;;5.60;4.20;;;;;;;;;;4998221;28;20038;-72
2022/07/19 01:16:19;;;;;;;6.18;4.40;;;;;;;;;;5000383;28;20079;-72
2022/07/19 01:18:44;;;;;;;6.68;4.53;;;;;;;;;;5000714;28;20026;-72
2022/07/19 01:21:24;;;;;;;6.50;4.25;;;;;;;;;;4999863;28;20061;-72
2022/07/19 01:23:49;;;;;;;7.45;5.25;;;;;;;;;;4999612;28;20441;-72
2022/07/19 01:26:15;;;;;;;5.53;4.03;;;;;;;;;;4998884;28;20026;-73
2022/07/19 01:28:42;;;;;;;5.97;4.22;;;;;;;;;;4999220;28;20104;-72
2022/07/19 01:31:07;;;;;;;6.75;4.35;;;;;;;;;;4995418;28;20445;-72
2022/07/19 01:33:39;;;;;;;5.18;4.00;;;;;;;;;;4997207;28;20026;-72
2022/07/19 01:36:04;;;;;;;5.53;4.20;;;;;;;;;;5001388;28;20125;-72
2022/07/19 01:38:30;;;;;;;5.47;4.25;;;;;;;;;;4998743;28;20092;-72
2022/07/19 01:40:58;;;;;;;6.35;3.75;;;;;;;;;;4997573;28;20029;-72
2022/07/19 01:43:23;;;;;;;5.35;3.83;;;;;;;;;;4999633;28;20033;-73
2022/07/19 01:45:48;;;;;;;4.68;3.88;;;;;;;;;;5001805;28;20627;-73
2022/07/19 01:48:14;;;;;;;6.22;4.28;;;;;;;;;;4999552;28;20057;-72
2022/07/19 01:50:40;;;;;;;9.60;4.80;;;;;;;;;;4997785;28;20029;-73
2022/07/19 01:53:05;;;;;;;5.60;3.75;;;;;;;;;;4999429;28;20044;-72
2022/07/19 01:55:30;;;;;;;5.75;4.18;;;;;;;;;;5001124;28;20390;-72
2022/07/19 01:57:56;;;;;;;5.97;3.88;;;;;;;;;;4998710;28;20013;-73
2022/07/19 02:00:21;;;;;;;6.22;4.05;;;;;;;;;;4998963;28;20033;-72
2022/07/19 02:02:46;;;;;;;6.15;4.82;;;;;;;;;;4998970;28;20038;-71
2022/07/19 02:05:12;;;;;;;6.80;4.40;;;;;;;;;;5003489;28;20446;-73
2022/07/19 02:07:39;;;;;;;5.95;4.22;;;;;;;;;;5000047;28;20038;-73
2022/07/19 02:10:05;;;;;;;5.88;4.32;;;;;;;;;;5004332;28;20037;-72
2022/07/19 02:12:31;;;;;;;5.55;4.28;;;;;;;;;;4997586;28;20060;-72
2022/07/19 02:14:56;;;;;;;6.40;4.78;;;;;;;;;;4997741;28;20066;-73
2022/07/19 02:17:21;;;;;;;6.22;4.63;;;;;;;;;;5001016;28;20639;-72
2022/07/19 02:19:47;;;;;;;6.28;4.70;;;;;;;;;;5001638;28;20025;-72
2022/07/19 02:22:12;;;;;;;6.32;4.95;;;;;;;;;;5000301;28;20043;-72
2022/07/19 02:24:39;;;;;;;6.22;4.63;;;;;;;;;;5000922;28;20091;-72
2022/07/19 02:27:04;;;;;;;7.50;4.90;;;;;;;;;;5000254;28;20430;-73
2022/07/19 02:29:30;;;;;;;6.63;4.30;;;;;;;;;;4995717;28;20034;-72
2022/07/19 02:31:55;;;;;;;6.35;4.70;;;;;;;;;;4999566;28;20101;-72
2022/07/19 02:34:20;;;;;;;5.68;4.60;;;;;;;;;;4997474;28;20053;-72
2022/07/19 02:36:46;;;;;;;5.90;4.40;;;;;;;;;;5000591;28;20030;-72
2022/07/19 02:39:11;;;;;;;5.00;4.22;;;;;;;;;;4996305;28;20029;-73
2022/07/19 02:41:36;;;;;;;5.72;4.53;;;;;;;;;;5003716;28;20030;-72
2022/07/19 02:44:02;;;;;;;6.13;4.38;;;;;;;;;;5001832;28;20034;-72
2022/07/19 02:46:27;;;;;;;5.70;4.55;;;;;;;;;;4993817;28;20030;-73
2022/07/19 02:48:52;;;;;;;5.85;4.68;;;;;;;;;;4988814;28;20151;-73
2022/07/19 02:51:18;;;;;;;5.72;4.30;;;;;;;;;;5001037;28;20041;-72
2022/07/19 02:53:43;;;;;;;5.63;4.68;;;;;;;;;;5000866;28;20022;-72
2022/07/19 02:56:08;;;;;;;7.28;4.57;;;;;;;;;;5002179;28;20034;-72
2022/07/19 02:58:34;;;;;;;6.35;4.50;;;;;;;;;;4998408;28;20433;-72
2022/07/19 03:00:59;;;;;;;7.03;4.55;;;;;;;;;;5000683;28;22406;-72
2022/07/19 03:03:43;;;;;;;5.63;4.20;;;;;;;;;;4997977;28;20160;-71
2022/07/19 03:06:10;;;;;;;5.97;4.70;;;;;;;;;;4994914;28;20030;-73
2022/07/19 03:08:35;;;;;;;6.50;4.22;;;;;;;;;;4994917;28;20041;-73
2022/07/19 03:11:01;;;;;;;5.75;4.78;;;;;;;;;;5012112;28;20029;-72
2022/07/19 03:13:26;;;;;;;6.78;4.35;;;;;;;;;;4997822;28;20103;-72
2022/07/19 03:15:51;;;;;;;7.13;4.80;;;;;;;;;;4998660;28;20033;-73
2022/07/19 03:18:17;;;;;;;7.93;4.65;;;;;;;;;;5002761;28;20955;-72
2022/07/19 03:20:42;;;;;;;7.78;4.53;;;;;;;;;;5002164;28;20445;-73
2022/07/19 03:23:07;;;;;;;6.22;4.60;;;;;;;;;;4997608;28;20048;-72
2022/07/19 03:25:33;;;;;;;5.85;4.28;;;;;;;;;;5001018;28;20038;-73
2022/07/19 03:27:58;;;;;;;5.82;4.28;;;;;;;;;;4998681;28;20434;-72
2022/07/19 03:30:24;;;;;;;5.97;4.50;;;;;;;;;;4998701;28;20069;-73
2022/07/19 03:32:49;;;;;;;6.22;4.40;;;;;;;;;;4999411;28;20033;-72
2022/07/19 03:35:15;;;;;;;7.00;4.53;;;;;;;;;;5000290;28;20501;-72
2022/07/19 03:37:40;;;;;;;6.47;4.60;;;;;;;;;;5001764;28;20026;-73
2022/07/19 03:40:07;;;;;;;6.53;4.57;;;;;;;;;;4999166;28;20053;-72
2022/07/19 03:42:32;;;;;;;7.57;5.13;;;;;;;;;;5002291;28;20034;-72
2022/07/19 03:44:57;;;;;;;5.22;4.22;;;;;;;;;;5005011;28;20026;-73
2022/07/19 03:47:23;;;;;;;7.28;4.10;;;;;;;;;;5003616;28;20041;-73
2022/07/19 03:49:48;;;;;;;6.18;4.40;;;;;;;;;;5009162;28;20028;-73
2022/07/19 03:52:14;;;;;;;5.88;3.95;;;;;;;;;;5010964;28;20060;-72
2022/07/19 03:54:40;;;;;;;7.13;4.40;;;;;;;;;;5010989;28;20485;-72
2022/07/19 03:57:05;;;;;;;6.07;4.30;;;;;;;;;;5000626;28;20034;-73
2022/07/19 03:59:30;;;;;;;5.47;4.25;;;;;;;;;;5001582;28;20025;-73
2022/07/19 04:01:56;;;;;;;6.50;4.60;;;;;;;;;;5005962;28;20025;-74
2022/07/19 04:04:21;;;;;;;6.68;4.38;;;;;;;;;;5008657;28;20860;-73
2022/07/19 04:06:47;;;;;;;7.20;4.78;;;;;;;;;;5008732;28;20033;-72
2022/07/19 04:09:12;;;;;;;6.72;4.63;;;;;;;;;;5010777;28;20034;-74
2022/07/19 04:11:37;;;;;;;6.20;4.60;;;;;;;;;;5010926;28;20021;-74
2022/07/19 04:14:03;;;;;;;6.50;4.00;;;;;;;;;;5007461;28;20111;-74
2022/07/19 04:16:28;;;;;;;5.95;4.03;;;;;;;;;;5008969;28;20364;-75
2022/07/19 04:18:54;;;;;;;7.65;4.68;;;;;;;;;;5002260;28;20033;-74
2022/07/19 04:21:19;;;;;;;6.15;4.00;;;;;;;;;;5001795;28;20426;-73
2022/07/19 04:23:45;;;;;;;8.32;5.13;;;;;;;;;;5005064;28;20029;-72
2022/07/19 04:26:10;;;;;;;7.13;4.80;;;;;;;;;;5001997;28;20037;-74
2022/07/19 04:28:35;;;;;;;6.38;4.95;;;;;;;;;;5002163;28;20033;-74
2022/07/19 04:31:01;;;;;;;8.13;4.28;;;;;;;;;;5005430;28;20036;-74
2022/07/19 04:33:26;;;;;;;5.47;3.88;;;;;;;;;;5008982;28;20030;-75
2022/07/19 04:35:53;;;;;;;5.07;4.15;;;;;;;;;;5008046;28;20085;-74
2022/07/19 04:38:19;;;;;;;6.93;3.95;;;;;;;;;;5008593;28;20042;-72
2022/07/19 04:40:44;;;;;;;6.85;4.40;;;;;;;;;;5003773;28;20399;-74
2022/07/19 04:43:10;;;;;;;6.97;4.38;;;;;;;;;;5014902;28;20044;-72
2022/07/19 04:45:35;;;;;;;6.90;4.00;;;;;;;;;;5001916;28;22633;-74
2022/07/19 04:48:01;;;;;;;6.80;3.85;;;;;;;;;;5002188;28;20038;-71
2022/07/19 04:50:26;;;;;;;5.05;3.95;;;;;;;;;;5006432;28;20029;-74
2022/07/19 04:52:51;;;;;;;5.15;3.70;;;;;;;;;;5004383;28;20121;-72
2022/07/19 04:55:17;;;;;;;6.43;3.78;;;;;;;;;;5005684;28;20359;-71
2022/07/19 04:57:42;;;;;;;5.93;4.50;;;;;;;;;;5011775;28;20109;-75
2022/07/19 05:00:10;;;;;;;5.18;3.63;;;;;;;;;;5013365;28;20049;-75
2022/07/19 05:02:36;;;;;;;6.90;4.82;;;;;;;;;;5006342;28;20034;-75
2022/07/19 05:05:03;;;;;;;6.43;4.72;;;;;;;;;;5007295;28;20034;-74
2022/07/19 05:07:28;;;;;;;6.13;3.70;;;;;;;;;;5009940;28;20470;-73
2022/07/19 05:09:53;;;;;;;7.53;5.20;;;;;;;;;;5011427;28;20080;-75
2022/07/19 05:12:19;;;;;;;8.27;5.18;;;;;;;;;;5005687;28;20121;-72
2022/07/19 05:14:44;;;;;;;7.90;5.40;;;;;;;;;;5004235;28;20026;-74
2022/07/19 05:17:10;;;;;;;6.85;5.57;;;;;;;;;;4997832;28;20160;-75
2022/07/19 05:19:35;;;;;;;8.38;4.68;;;;;;;;;;4997552;28;20026;-75
2022/07/19 05:22:00;;;;;;;5.57;4.22;;;;;;;;;;5002659;28;20037;-73
2022/07/19 05:24:26;;;;;;;6.65;4.20;;;;;;;;;;5003315;28;20979;-72
2022/07/19 05:26:51;;;;;;;6.22;4.38;;;;;;;;;;5001502;28;20449;-74
2022/07/19 05:29:17;;;;;;;9.02;5.45;;;;;;;;;;5002354;28;20030;-75
2022/07/19 05:31:42;;;;;;;9.43;6.65;;;;;;;;;;4998280;28;20088;-75
2022/07/19 05:34:07;;;;;;;9.75;7.35;;;;;;;;;;4998923;28;20494;-72
2022/07/19 05:36:33;;;;;;;9.27;7.35;;;;;;;;;;4998942;28;20588;-73
2022/07/19 05:38:58;;;;;;;11.48;7.30;;;;;;;;;;5004189;28;20029;-72
2022/07/19 05:41:24;;;;;;;8.18;7.05;;;;;;;;;;4997897;28;20030;-74
2022/07/19 05:43:49;;;;;;;9.30;6.88;;;;;;;;;;5000825;28;20054;-73
2022/07/19 05:46:15;;;;;;;9.50;7.15;;;;;;;;;;5001871;28;20038;-71
2022/07/19 05:48:41;;;;;;;8.20;6.75;;;;;;;;;;5002008;28;20049;-73
2022/07/19 05:51:06;;;;;;;9.02;6.70;;;;;;;;;;5001848;28;20025;-73
2022/07/19 05:53:31;;;;;;;11.20;7.30;;;;;;;;;;5005270;28;20097;-73
2022/07/19 05:55:57;;;;;;;10.82;6.70;;;;;;;;;;5002962;28;20030;-73
2022/07/19 05:58:24;;;;;;;9.32;6.72;;;;;;;;;;5006438;28;20050;-74
2022/07/19 06:03:33;;;;;;;7.85;5.93;;;;;;;;;;5003943;28;20044;-72
2022/07/19 06:05:59;;;;;;;7.57;5.65;;;;;;;;;;5005262;28;20526;-73
2022/07/19 06:08:24;;;;;;;9.40;5.70;;;;;;;;;;5002292;28;20481;-73
2022/07/19 06:10:49;;;;;;;7.43;5.82;;;;;;;;;;5009399;28;20029;-74
2022/07/19 06:13:15;;;;;;;7.93;6.13;;;;;;;;;;5025554;28;20037;-71
2022/07/19 06:15:41;;;;;;;6.75;5.32;;;;;;;;;;5010216;28;20084;-75
2022/07/19 06:18:06;;;;;;;8.82;5.88;;;;;;;;;;5010566;28;20091;-72
2022/07/19 06:20:31;;;;;;;11.98;6.28;;;;;;;;;;5005074;28;20026;-72
2022/07/19 06:22:57;;;;;;;8.10;5.30;;;;;;;;;;5010865;28;20061;-72
2022/07/19 06:25:22;;;;;;;13.80;5.88;;;;;;;;;;5011720;28;20465;-75
2022/07/19 06:27:47;;;;;;;7.10;5.45;;;;;;;;;;5007992;28;20030;-75
2022/07/19 06:30:14;;;;;;;9.30;5.22;;;;;;;;;;5004606;28;20069;-74
2022/07/19 06:32:39;;;;;;;8.95;5.55;;;;;;;;;;5005688;28;20044;-72
2022/07/19 06:35:05;;;;;;;9.73;5.28;;;;;;;;;;5008028;28;20045;-72
2022/07/19 06:37:30;;;;;;;7.72;4.82;;;;;;;;;;5006385;28;20030;-71
2022/07/19 06:39:55;;;;;;;8.63;4.80;;;;;;;;;;5006605;28;20022;-72
2022/07/19 06:42:21;;;;;;;9.18;5.05;;;;;;;;;;5009188;28;20034;-72
2022/07/19 06:44:46;;;;;;;7.95;5.00;;;;;;;;;;5005260;28;20025;-72
2022/07/19 06:47:12;;;;;;;9.05;5.10;;;;;;;;;;5009072;28;20393;-72
2022/07/19 06:49:37;;;;;;;7.28;4.68;;;;;;;;;;5006348;28;20029;-72
2022/07/19 06:52:03;;;;;;;9.43;4.75;;;;;;;;;;5005820;28;20567;-72
2022/07/19 06:54:28;;;;;;;7.10;4.55;;;;;;;;;;5003580;28;20064;-72
2022/07/19 06:56:54;;;;;;;9.40;4.32;;;;;;;;;;5002410;28;20083;-71
2022/07/19 06:59:19;;;;;;;11.18;4.82;;;;;;;;;;5002775;28;20042;-71
2022/07/19 07:01:45;;;;;;;9.63;4.75;;;;;;;;;;4996973;28;20108;-72
2022/07/19 07:04:10;;;;;;;6.85;4.07;;;;;;;;;;5014661;28;20087;-71
2022/07/19 07:06:36;;;;;;;7.32;3.60;;;;;;;;;;5009719;28;20490;-70
2022/07/19 07:09:02;;;;;;;6.18;3.33;;;;;;;;;;5010552;28;20100;-71
2022/07/19 07:11:28;;;;;;;6.43;3.85;;;;;;;;;;5010923;28;20103;-71
2022/07/19 07:13:53;;;;;;;10.75;4.15;;;;;;;;;;5012771;28;20030;-72
2022/07/19 07:16:19;;;;;;;6.85;3.97;;;;;;;;;;5010068;28;20471;-71
2022/07/19 07:18:44;;;;;;;7.40;4.53;;;;;;;;;;5013007;28;20152;-71
2022/07/19 07:21:09;;;;;;;5.75;3.83;;;;;;;;;;5014036;28;20030;-71
2022/07/19 07:23:35;;;;;;;6.25;3.40;;;;;;;;;;5005916;28;20100;-72
2022/07/19 07:26:00;;;;;;;7.55;3.83;;;;;;;;;;5009561;28;20052;-72
2022/07/19 07:28:26;;;;;;;7.38;4.32;;;;;;;;;;4997910;28;20037;-72
2022/07/19 07:30:51;;;;;;;5.53;3.50;;;;;;;;;;5006393;28;20498;-72
2022/07/19 07:33:17;;;;;;;6.10;3.63;;;;;;;;;;5011992;28;20038;-71
2022/07/19 07:35:42;;;;;;;5.47;3.28;;;;;;;;;;5007270;28;20053;-71
2022/07/19 07:38:07;;;;;;;9.88;3.58;;;;;;;;;;5005014;28;20026;-71
2022/07/19 07:40:33;;;;;;;5.30;3.05;;;;;;;;;;5012291;28;20033;-73
2022/07/19 07:42:59;;;;;;;6.50;3.45;;;;;;;;;;5009555;28;20498;-71
2022/07/19 07:45:25;;;;;;;7.18;4.03;;;;;;;;;;5012714;28;20111;-73
2022/07/19 07:47:50;;;;;;;9.32;3.42;;;;;;;;;;5014730;28;20034;-71
2022/07/19 07:50:15;;;;;;;6.95;3.30;;;;;;;;;;5016256;28;20032;-73
2022/07/19 07:52:41;;;;;;;6.10;3.60;;;;;;;;;;5013417;28;20033;-73
2022/07/19 07:55:06;;;;;;;4.63;3.25;;;;;;;;;;5008977;28;20025;-72
2022/07/19 07:57:32;;;;;;;6.75;3.60;;;;;;;;;;5008922;28;20026;-71
2022/07/19 07:59:57;;;;;;;7.93;3.17;;;;;;;;;;5009311;28;20088;-71
2022/07/19 08:02:23;;;;;;;6.20;2.97;;;;;;;;;;5008968;28;20030;-73
2022/07/19 08:04:48;;;;;;;5.45;3.08;;;;;;;;;;5008509;28;20088;-73
2022/07/19 08:07:14;;;;;;;6.53;3.20;;;;;;;;;;5014572;28;20120;-72
2022/07/19 08:09:39;;;;;;;4.20;2.83;;;;;;;;;;5011657;28;20030;-73
2022/07/19 08:12:05;;;;;;;5.93;3.30;;;;;;;;;;5010252;28;20022;-71
2022/07/19 08:14:33;;;;;;;4.57;2.97;;;;;;;;;;5006914;28;20339;-71
2022/07/19 08:16:58;;;;;;;5.63;2.67;;;;;;;;;;5011389;28;20030;-71
2022/07/19 08:19:24;;;;;;;5.15;2.83;;;;;;;;;;5009300;28;20089;-72
2022/07/19 08:21:49;;;;;;;5.60;2.72;;;;;;;;;;5011823;28;20026;-72
2022/07/19 08:24:15;;;;;;;9.23;2.45;;;;;;;;;;5027339;28;20469;-71
2022/07/19 08:26:40;;;;;;;4.45;2.65;;;;;;;;;;5009032;28;20033;-73
2022/07/19 08:29:07;;;;;;;6.65;2.55;;;;;;;;;;5011124;28;20048;-73
2022/07/19 08:31:32;;;;;;;4.32;2.60;;;;;;;;;;5009770;28;20833;-73
2022/07/19 08:33:58;;;;;;;7.32;2.75;;;;;;;;;;5010368;28;20034;-72
2022/07/19 08:36:23;;;;;;;5.65;2.60;;;;;;;;;;5007816;28;20389;-73
2022/07/19 08:38:49;;;;;;;6.20;2.80;;;;;;;;;;5009319;28;20025;-71
2022/07/19 08:41:15;;;;;;;5.28;2.63;;;;;;;;;;5014176;28;20649;-71
2022/07/19 08:43:41;;;;;;;5.25;2.70;;;;;;;;;;5014565;28;20389;-73
2022/07/19 08:46:06;;;;;;;4.05;2.50;;;;;;;;;;5009674;28;20030;-71
2022/07/19 08:48:34;;;;;;;3.78;2.55;;;;;;;;;;5011972;28;20477;-73
2022/07/19 08:51:00;;;;;;;5.22;2.60;;;;;;;;;;5011570;28;20113;-71
2022/07/19 08:53:29;;;;;;;8.05;2.65;;;;;;;;;;5010981;28;20545;-71
2022/07/19 08:55:54;;;;;;;5.45;2.40;;;;;;;;;;5010551;28;20024;-73
2022/07/19 08:58:19;;;;;;;4.75;2.53;;;;;;;;;;5012997;28;20121;-73
2022/07/19 09:00:45;;;;;;;6.28;2.50;;;;;;;;;;5007397;28;20520;-73
2022/07/19 09:03:10;;;;;;;4.53;2.55;;;;;;;;;;5007798;28;20058;-71
2022/07/19 09:05:36;;;;;;;4.88;2.65;;;;;;;;;;5009071;28;20072;-73
2022/07/19 09:08:04;;;;;;;6.97;2.60;;;;;;;;;;5011770;28;20026;-72
2022/07/19 09:10:30;;;;;;;6.03;2.60;;;;;;;;;;5012473;28;20025;-70
2022/07/19 09:13:03;;;;;;;3.75;2.50;;;;;;;;;;5010661;28;20026;-73
2022/07/19 09:15:39;;;;;;;5.30;2.30;;;;;;;;;;5010298;28;20034;-71
2022/07/19 09:18:09;;;;;;;5.18;2.45;;;;;;;;;;5002825;28;20493;-73
2022/07/19 09:20:35;;;;;;;4.28;2.25;;;;;;;;;;5008271;28;20120;-73
2022/07/19 09:23:01;;;;;;;3.67;2.20;;;;;;;;;;5011846;28;20109;-72
2022/07/19 09:25:34;;;;;;;6.07;2.58;;;;;;;;;;5010308;28;20049;-71
2022/07/19 09:27:59;;;;;;;5.40;2.53;;;;;;;;;;5012572;28;20504;-73
2022/07/19 09:30:44;;;;;;;5.63;2.38;;;;;;;;;;5010472;28;20124;-72
2022/07/19 09:33:22;;;;;;;5.18;2.40;;;;;;;;;;5008132;28;20045;-73
2022/07/19 09:35:50;;;;;;;6.82;2.70;;;;;;;;;;5006641;28;20046;-73
2022/07/19 09:38:30;;;;;;;5.60;2.50;;;;;;;;;;5009314;28;20056;-71
2022/07/19 09:41:13;;;;;;;4.78;2.42;;;;;;;;;;5007103;28;20026;-73
2022/07/19 09:43:51;;;;;;;3.88;2.25;;;;;;;;;;5003470;28;20541;-73
2022/07/19 09:46:29;;;;;;;4.22;1.90;;;;;;;;;;5008386;28;20037;-72
2022/07/19 09:49:06;;;;;;;5.60;2.10;;;;;;;;;;5011383;28;20217;-72
2022/07/19 09:51:33;;;;;;;4.72;2.15;;;;;;;;;;5004589;28;20064;-72
2022/07/19 09:54:01;;;;;;;5.80;2.20;;;;;;;;;;5005985;28;20030;-72
2022/07/19 09:56:29;;;;;;;4.15;1.98;;;;;;;;;;5009944;28;20037;-73
2022/07/19 09:58:56;;;;;;;3.15;1.80;;;;;;;;;;5006587;28;20053;-73
2022/07/19 10:01:22;;;;;;;3.20;1.67;;;;;;;;;;5014763;28;20096;-71
2022/07/19 10:03:49;;;;;;;4.25;1.80;;;;;;;;;;5005079;28;20030;-73
2022/07/19 10:06:15;;;;;;;4.05;1.67;;;;;;;;;;5006102;28;20661;-73
2022/07/19 10:08:41;;;;;;;2.60;1.52;;;;;;;;;;5009436;28;20029;-72
2022/07/19 10:11:06;;;;;;;3.67;1.60;;;;;;;;;;5006499;28;20506;-72
2022/07/19 10:13:33;;;;;;;3.35;1.60;;;;;;;;;;5006156;28;20026;-73
2022/07/19 10:16:00;;;;;;;2.22;1.63;;;;;;;;;;4999704;28;20034;-73
2022/07/19 10:18:32;;;;;;;3.88;1.77;;;;;;;;;;5002924;28;20069;-73
2022/07/19 10:21:01;;;;;;;;;;;;;;;;;;5002842;28;20030;-73
2022/07/19 10:23:28;;;;;;;3.38;1.65;;;;;;;;;;5005971;28;20292;-72
2022/07/19 10:25:54;;;;;;;2.67;1.60;;;;;;;;;;5010498;28;20064;-71
2022/07/19 10:28:35;;;;;;;2.85;1.50;;;;;;;;;;5006561;28;20115;-73
2022/07/19 10:31:00;;;;;;;2.53;1.60;;;;;;;;;;5012841;28;20067;-71
2022/07/19 10:33:38;;;;;;;3.92;1.60;;;;;;;;;;5006413;28;20062;-73
2022/07/19 10:36:39;;;;;;;3.95;1.58;;;;;;;;;;5003331;28;20057;-71
2022/07/19 10:39:35;;;;;;;4.13;1.63;;;;;;;;;;5001733;28;20037;-71
2022/07/19 10:42:17;;;;;;;4.18;2.40;;;;;;;;;;5006554;28;20034;-71
2022/07/19 10:44:55;;;;;;;3.67;1.90;;;;;;;;;;5018524;28;21092;-71
2022/07/19 10:47:26;;;;;;;3.50;1.60;;;;;;;;;;5005478;28;20811;-71
2022/07/19 10:49:59;;;;;;;2.53;1.80;;;;;;;;;;5008848;28;20528;-73
2022/07/19 10:52:27;;;;;;;2.88;1.90;;;;;;;;;;5012165;28;20504;-73
2022/07/19 10:55:23;;;;;;;3.22;2.00;;;;;;;;;;5006905;28;20049;-73
2022/07/19 10:57:53;;;;;;;3.15;1.70;;;;;;;;;;5011337;28;20055;-71
2022/07/19 11:00:26;;;;;;;3.20;1.60;;;;;;;;;;5011988;28;20041;-72
2022/07/19 11:03:13;;;;;;;6.60;1.95;;;;;;;;;;5008287;28;20535;-73
2022/07/19 11:05:49;;;;;;;4.75;1.52;;;;;;;;;;5007174;28;20491;-71
2022/07/19 11:08:15;;;;;;;3.92;1.70;;;;;;;;;;5011249;28;20029;-73
2022/07/19 11:10:41;;;;;;;6.55;1.90;;;;;;;;;;5012848;28;20040;-71
2022/07/19 11:13:07;;;;;;;9.30;1.85;;;;;;;;;;5009384;28;20033;-72
2022/07/19 11:15:32;;;;;;;6.15;2.10;;;;;;;;;;5005398;28;20402;-71
2022/07/19 11:18:06;;;;;;;3.58;1.80;;;;;;;;;;5009926;28;20028;-73
2022/07/19 11:20:34;;;;;;;5.00;2.30;;;;;;;;;;5007509;28;20089;-71
2022/07/19 11:23:01;;;;;;;3.47;1.80;;;;;;;;;;5009371;28;20490;-71
2022/07/19 11:25:30;;;;;;;4.55;2.03;;;;;;;;;;5006506;28;20041;-71
2022/07/19 11:27:57;;;;;;;7.45;2.42;;;;;;;;;;5004628;28;20382;-71
2022/07/19 11:30:24;;;;;;;5.35;2.10;;;;;;;;;;5005414;28;20034;-71
2022/07/19 11:33:02;;;;;;;5.07;2.60;;;;;;;;;;4998803;28;20569;-71
2022/07/19 11:35:29;;;;;;;4.05;2.83;;;;;;;;;;5000607;28;20108;-71
2022/07/19 11:37:56;;;;;;;3.75;2.30;;;;;;;;;;5005269;28;20044;-71
2022/07/19 11:40:23;;;;;;;4.28;2.28;;;;;;;;;;5004779;28;20040;-72
2022/07/19 11:42:50;;;;;;;4.45;2.10;;;;;;;;;;5003188;28;20030;-71
2022/07/19 11:45:24;;;;;;;4.30;2.03;;;;;;;;;;5004304;28;20042;-72
2022/07/19 11:47:51;;;;;;;4.90;2.30;;;;;;;;;;5004470;28;20026;-71
2022/07/19 11:50:19;;;;;;;8.40;2.55;;;;;;;;;;5006862;28;20025;-73
2022/07/19 11:52:53;;;;;;;4.57;2.25;;;;;;;;;;5007020;28;20029;-71
2022/07/19 11:55:36;;;;;;;8.63;2.25;;;;;;;;;;5009399;28;20444;-72
2022/07/19 11:58:06;;;;;;;4.57;2.45;;;;;;;;;;5008744;28;20569;-71
2022/07/19 12:00:33;;;;;;;6.25;2.20;;;;;;;;;;5006005;28;20018;-71
2022/07/19 12:03:06;;;;;;;4.38;2.38;;;;;;;;;;5007215;28;20136;-72
2022/07/19 12:06:01;;;;;;;6.20;2.30;;;;;;;;;;5009240;28;20393;-72
2022/07/19 12:08:37;;;;;;;3.85;2.05;;;;;;;;;;5009226;28;20152;-71
2022/07/19 12:11:23;;;;;;;6.10;2.30;;;;;;;;;;5008236;28;20107;-72
2022/07/19 12:13:49;;;;;;;5.70;2.20;;;;;;;;;;5005461;28;20042;-73
2022/07/19 12:16:15;;;;;;;6.28;2.47;;;;;;;;;;5007855;28;20188;-70
2022/07/19 12:18:54;;;;;;;4.38;2.45;;;;;;;;;;5006340;28;20048;-73
2022/07/19 12:21:28;;;;;;;3.40;2.08;;;;;;;;;;5005604;28;20045;-71
2022/07/19 12:24:15;;;;;;;5.75;2.10;;;;;;;;;;5008321;28;20034;-70
2022/07/19 12:27:03;;;;;;;5.38;2.35;;;;;;;;;;5006470;28;20034;-72
2022/07/19 12:29:35;;;;;;;4.25;2.20;;;;;;;;;;5005674;28;20053;-70
2022/07/19 12:32:07;;;;;;;6.68;2.25;;;;;;;;;;5003518;28;20026;-72
2022/07/19 12:34:50;;;;;;;5.15;2.20;;;;;;;;;;5005547;28;20120;-73
2022/07/19 12:37:37;;;;;;;3.88;2.33;;;;;;;;;;5007988;28;20512;-71
2022/07/19 12:40:09;;;;;;;6.28;2.30;;;;;;;;;;4999098;28;20398;-70
2022/07/19 12:42:52;;;;;;;4.05;2.20;;;;;;;;;;4996815;28;20136;-71
2022/07/19 12:45:20;;;;;;;4.57;2.00;;;;;;;;;;4998983;28;20065;-71
2022/07/19 12:47:47;;;;;;;4.00;1.90;;;;;;;;;;5008448;28;20470;-71
2022/07/19 12:50:25;;;;;;;3.22;1.95;;;;;;;;;;5003975;28;20117;-72
2022/07/19 12:52:52;;;;;;;6.28;1.98;;;;;;;;;;5006737;28;20034;-72
2022/07/19 12:55:18;;;;;;;2.67;2.05;;;;;;;;;;5002936;28;20119;-72
2022/07/19 12:57:43;;;;;;;5.03;1.85;;;;;;;;;;5002696;28;20026;-72
2022/07/19 13:00:09;;;;;;;4.78;1.95;;;;;;;;;;5016447;28;20049;-72
2022/07/19 13:02:35;;;;;;;4.65;2.00;;;;;;;;;;5002273;28;20038;-72
2022/07/19 13:05:00;;;;;;;3.60;2.08;;;;;;;;;;4996554;28;20368;-72
2022/07/19 13:07:25;;;;;;;3.83;2.10;;;;;;;;;;4997743;28;20493;-71
2022/07/19 13:09:51;;;;;;;5.07;1.90;;;;;;;;;;5004413;28;20121;-71
2022/07/19 13:12:16;;;;;;;5.70;2.05;;;;;;;;;;4996544;28;20037;-73
2022/07/19 13:14:41;;;;;;;5.20;2.10;;;;;;;;;;5003688;28;20033;-71
2022/07/19 13:17:10;;;;;;;2.70;1.70;;;;;;;;;;5000432;28;20558;-72
2022/07/19 13:19:39;;;;;;;4.32;2.00;;;;;;;;;;5020272;28;20112;-71
2022/07/19 13:22:05;;;;;;;6.65;1.85;;;;;;;;;;5002827;28;20029;-71
2022/07/19 13:24:31;;;;;;;7.40;2.10;;;;;;;;;;5002017;28;20117;-72
2022/07/19 13:26:57;;;;;;;5.53;2.30;;;;;;;;;;4999392;28;20034;-72
2022/07/19 13:29:22;;;;;;;4.68;2.00;;;;;;;;;;5002077;28;20041;-71
2022/07/19 13:31:48;;;;;;;5.15;1.92;;;;;;;;;;5004339;28;20566;-72
2022/07/19 13:34:14;;;;;;;4.22;1.45;;;;;;;;;;5005394;28;20077;-73
2022/07/19 13:36:39;;;;;;;2.67;1.63;;;;;;;;;;5006449;28;20068;-71
2022/07/19 13:39:05;;;;;;;4.88;1.60;;;;;;;;;;5002405;28;20025;-71
2022/07/19 13:41:30;;;;;;;4.13;1.65;;;;;;;;;;5001681;28;20029;-72
2022/07/19 13:43:56;;;;;;;4.45;1.95;;;;;;;;;;4996503;28;20026;-71
2022/07/19 13:46:21;;;;;;;4.75;1.92;;;;;;;;;;5008521;28;20136;-73
2022/07/19 13:48:47;;;;;;;3.72;2.10;;;;;;;;;;4995567;28;20030;-72
2022/07/19 13:51:13;;;;;;;5.57;2.38;;;;;;;;;;5002937;28;20112;-72
2022/07/19 13:53:39;;;;;;;3.85;2.28;;;;;;;;;;5002757;28;20269;-71
2022/07/19 13:56:05;;;;;;;6.30;2.25;;;;;;;;;;5003466;28;20528;-71
2022/07/19 13:58:31;;;;;;;4.80;2.30;;;;;;;;;;5003331;28;20029;-71
2022/07/19 14:00:57;;;;;;;3.33;1.88;;;;;;;;;;4999950;28;20038;-72
2022/07/19 14:03:22;;;;;;;4.25;2.28;;;;;;;;;;4998910;28;20040;-70
2022/07/19 14:05:48;;;;;;;5.55;2.22;;;;;;;;;;5002571;28;20057;-73
2022/07/19 14:08:15;;;;;;;7.43;2.50;;;;;;;;;;5000749;28;20038;-71
2022/07/19 14:10:41;;;;;;;3.60;2.08;;;;;;;;;;5002560;28;20030;-72
2022/07/19 14:13:07;;;;;;;4.60;2.15;;;;;;;;;;5005910;28;20041;-71
2022/07/19 14:15:33;;;;;;;4.97;2.67;;;;;;;;;;4997454;28;20392;-72
2022/07/19 14:17:59;;;;;;;5.78;2.67;;;;;;;;;;5014577;28;20036;-71
2022/07/19 14:20:25;;;;;;;8.07;2.80;;;;;;;;;;5000393;28;20477;-73
2022/07/19 14:22:51;;;;;;;8.63;2.78;;;;;;;;;;5004006;28;20033;-73
2022/07/19 14:25:17;;;;;;;4.93;2.50;;;;;;;;;;5001524;28;20045;-73
2022/07/19 14:27:42;;;;;;;4.88;2.42;;;;;;;;;;5002884;28;20113;-71
2022/07/19 14:30:08;;;;;;;7.15;2.40;;;;;;;;;;5001603;28;20101;-72
2022/07/19 14:32:33;;;;;;;5.88;2.00;;;;;;;;;;4997719;28;20157;-73
2022/07/19 14:34:59;;;;;;;3.42;2.15;;;;;;;;;;4998541;28;20057;-71
2022/07/19 14:37:24;;;;;;;6.32;2.40;;;;;;;;;;5002350;28;20030;-71
2022/07/19 14:39:50;;;;;;;7.25;2.17;;;;;;;;;;5002471;28;20507;-71
2022/07/19 14:42:16;;;;;;;4.13;2.00;;;;;;;;;;5006265;28;21509;-71
2022/07/19 14:44:41;;;;;;;5.88;2.10;;;;;;;;;;5007922;28;20037;-73
2022/07/19 14:47:08;;;;;;;8.52;2.30;;;;;;;;;;5008633;28;20651;-71